createdAt,value
2023-03-06T00:04:33.983Z,-145.47
2023-03-06T00:09:35.932Z,-145.47
2023-03-06T00:14:39.259Z,-145.47
2023-03-06T00:19:41.304Z,-145.47
2023-03-06T00:24:45.025Z,-145.47
2023-03-06T00:29:51.340Z,-145.47
2023-03-06T00:34:55.005Z,-145.47
2023-03-06T00:39:57.168Z,-145.47
2023-03-06T00:45:00.498Z,-145.47
2023-03-06T00:50:02.499Z,-145.47
2023-03-06T00:55:05.372Z,-145.47
2023-03-06T01:00:10.458Z,-145.47
2023-03-06T01:05:13.730Z,-145.47
2023-03-06T01:10:15.734Z,-145.47
2023-03-06T01:15:19.423Z,-145.47
2023-03-06T01:20:22.370Z,-145.47
2023-03-06T01:25:24.889Z,-145.47
2023-03-06T01:30:28.217Z,-145.47
2023-03-06T01:35:30.217Z,-145.47
2023-03-06T01:40:33.213Z,-145.47
2023-03-06T01:46:12.617Z,-145.47
2023-03-06T01:51:16.251Z,-145.47
2023-03-06T01:56:18.543Z,-145.47
2023-03-06T02:01:21.197Z,-145.47
2023-03-06T02:06:24.521Z,-145.47
2023-03-06T02:11:26.608Z,-145.47
2023-03-06T02:16:32.630Z,-145.47
2023-03-06T02:21:37.584Z,-145.47
2023-03-06T02:26:42.307Z,-145.47
2023-03-06T02:31:44.266Z,-145.47
2023-03-06T02:36:49.338Z,-145.47
2023-03-06T02:41:52.730Z,-145.47
2023-03-06T02:46:54.780Z,-145.47
2023-03-06T02:51:56.724Z,-145.47
2023-03-06T02:57:00.109Z,-145.47
2023-03-06T03:02:02.051Z,-145.47
2023-03-06T03:07:04.056Z,-145.47
2023-03-06T03:12:08.272Z,-145.47
2023-03-06T03:17:10.211Z,-145.47
2023-03-06T03:22:12.175Z,-145.47
2023-03-06T03:27:15.486Z,-145.47
2023-03-06T03:32:17.595Z,-145.47
2023-03-06T03:37:19.570Z,-145.47
2023-03-06T03:42:22.880Z,-145.47
2023-03-06T03:47:24.903Z,-145.47
2023-03-06T03:52:26.857Z,-145.47
2023-03-06T03:57:30.729Z,-145.47
2023-03-06T04:02:32.665Z,-145.47
2023-03-06T04:07:34.667Z,-145.47
2023-03-06T04:12:38.324Z,-145.47
2023-03-06T04:17:40.228Z,-145.47
2023-03-06T04:22:42.224Z,-145.47
2023-03-06T04:27:45.675Z,-145.47
2023-03-06T04:32:47.601Z,-145.47
2023-03-06T04:37:49.535Z,-145.47
2023-03-06T04:42:53.248Z,-145.47
2023-03-06T04:51:51.762Z,0.08
2023-03-06T04:56:53.706Z,-0.09
2023-03-06T05:01:56.032Z,-0.09
2023-03-06T05:06:59.328Z,-0.08
2023-03-06T05:12:01.730Z,-0.08
2023-03-06T05:17:03.734Z,-0.07
2023-03-06T05:22:07.051Z,0.08
2023-03-06T05:27:08.984Z,0.08
2023-03-06T05:32:11.570Z,0.08
2023-03-06T05:37:14.967Z,0.08
2023-03-06T05:42:17.132Z,-145.47
2023-03-06T05:47:19.428Z,-145.47
2023-03-06T05:52:22.861Z,-145.47
2023-03-06T05:57:25.112Z,-145.47
2023-03-06T06:02:30.916Z,-145.47
2023-03-06T06:07:34.312Z,-145.47
2023-03-06T06:12:36.318Z,-145.47
2023-03-06T06:17:38.281Z,-145.47
2023-03-06T06:22:41.731Z,-145.47
2023-03-06T06:27:43.707Z,-145.47
2023-03-06T06:32:45.666Z,-145.47
2023-03-06T06:37:49.475Z,-145.47
2023-03-06T06:42:52.644Z,-145.47
2023-03-06T06:47:54.624Z,-145.47
2023-03-06T06:52:57.988Z,-145.47
2023-03-06T06:57:59.994Z,-145.47
2023-03-06T07:03:01.972Z,-145.47
2023-03-06T07:08:05.369Z,-145.47
2023-03-06T07:13:07.319Z,-145.47
2023-03-06T07:18:09.401Z,-145.47
2023-03-06T07:23:13.460Z,-145.47
2023-03-06T07:28:16.894Z,-145.47
2023-03-06T07:33:20.608Z,-145.47
2023-03-06T07:38:23.897Z,-145.47
2023-03-06T07:43:25.895Z,-145.47
2023-03-06T07:48:28.189Z,-145.47
2023-03-06T07:53:32.063Z,-145.47
2023-03-06T07:58:34.117Z,-145.47
2023-03-06T08:03:36.556Z,-145.47
2023-03-06T08:08:41.745Z,-145.47
2023-03-06T08:13:44.176Z,-145.47
2023-03-06T08:18:46.710Z,-145.47
2023-03-06T08:23:50.813Z,-145.47
2023-03-06T08:28:53.490Z,-145.47
2023-03-06T08:33:57.783Z,-145.47
2023-03-06T08:39:01.978Z,-145.47
2023-03-06T08:44:04.938Z,-145.47
2023-03-06T08:49:07.496Z,-145.47
2023-03-06T08:54:13.195Z,-145.47
2023-03-06T08:59:15.162Z,-145.47
2023-03-06T09:04:17.192Z,-145.47
2023-03-06T09:09:20.562Z,-145.47
2023-03-06T09:14:22.510Z,-145.47
2023-03-06T09:19:24.457Z,-145.47
2023-03-06T09:24:27.986Z,-145.47
2023-03-06T09:29:29.953Z,-145.47
2023-03-06T09:34:31.957Z,-145.47
2023-03-06T09:39:35.681Z,-145.47
2023-03-06T09:44:41.112Z,-145.47
2023-03-06T09:50:00.603Z,-145.47
2023-03-06T09:55:12.645Z,-145.47
2023-03-06T10:00:18.931Z,-145.47
2023-03-06T10:05:24.300Z,-145.47
2023-03-06T10:10:34.059Z,-145.47
2023-03-06T10:15:38.548Z,-145.47
2023-03-06T10:22:30.905Z,5.63
2023-03-06T10:27:39.640Z,5.50
2023-03-06T10:32:49.683Z,5.88
2023-03-06T10:38:00.370Z,4.95
2023-03-06T10:43:11.421Z,5.08
2023-03-06T10:48:19.128Z,4.93
2023-03-06T10:53:26.036Z,5.49
2023-03-06T10:58:29.481Z,5.56
2023-03-06T11:03:31.421Z,6.19
2023-03-06T11:08:35.470Z,6.03
2023-03-06T11:13:39.897Z,5.74
2023-03-06T11:18:54.304Z,5.30
2023-03-06T11:24:04.048Z,4.92
2023-03-06T11:29:09.137Z,4.46
2023-03-06T11:34:19.355Z,4.34
2023-03-06T11:39:34.279Z,4.18
2023-03-06T11:44:51.772Z,4.12
2023-03-06T11:50:05.890Z,4.24
2023-03-06T11:55:15.160Z,4.03
2023-03-06T12:00:32.880Z,3.85
2023-03-06T12:05:41.603Z,3.90
2023-03-06T12:10:51.806Z,3.94
2023-03-06T12:16:22.856Z,3.85
2023-03-06T12:21:33.816Z,3.16
2023-03-06T12:26:57.356Z,3.52
2023-03-06T12:32:14.887Z,3.47
2023-03-06T12:37:24.968Z,3.68
2023-03-06T12:42:40.605Z,3.73
2023-03-06T12:47:45.616Z,3.63
2023-03-06T12:52:48.456Z,3.42
2023-03-06T12:57:52.695Z,4.11
2023-03-06T13:03:14.865Z,3.69
2023-03-06T13:08:35.733Z,4.03
2023-03-06T13:13:43.787Z,3.89
2023-03-06T13:18:50.834Z,3.47
2023-03-06T13:24:02.239Z,3.88
2023-03-06T13:29:40.423Z,3.90
2023-03-06T13:34:43.307Z,3.94
2023-03-06T13:40:25.318Z,3.51
2023-03-06T13:45:34.047Z,3.71
2023-03-06T13:50:39.613Z,3.66
2023-03-06T13:55:49.352Z,3.55
2023-03-06T14:01:13.128Z,3.97
2023-03-06T14:06:52.369Z,3.36
2023-03-06T14:11:58.973Z,3.65
2023-03-06T14:17:05.158Z,3.59
2023-03-06T14:22:16.380Z,3.47
2023-03-06T14:27:19.082Z,3.58
2023-03-06T14:32:23.397Z,3.87
2023-03-06T14:37:25.577Z,3.60
2023-03-06T14:42:29.368Z,3.34
2023-03-06T14:47:34.456Z,3.66
2023-03-06T14:52:36.413Z,3.68
2023-03-06T14:57:38.565Z,3.86
2023-03-06T15:02:42.876Z,3.51
2023-03-06T15:07:45.472Z,2.79
2023-03-06T15:12:47.501Z,2.84
2023-03-06T15:17:50.851Z,2.28
2023-03-06T15:22:52.829Z,2.04
2023-03-06T15:27:56.994Z,2.12
2023-03-06T15:33:19.750Z,2.21
2023-03-06T15:38:30.278Z,2.21
2023-03-06T15:43:36.373Z,1.71
2023-03-06T15:48:39.655Z,1.71
2023-03-06T15:53:41.739Z,1.71
2023-03-06T15:58:43.889Z,-145.30
2023-03-06T16:03:47.289Z,-145.47
2023-03-06T16:08:49.263Z,-145.47
2023-03-06T16:13:51.945Z,-145.47
2023-03-06T16:18:55.501Z,-145.47
2023-03-06T16:23:57.455Z,-145.47
2023-03-06T16:28:59.664Z,-145.47
2023-03-06T16:34:03.087Z,-145.47
2023-03-06T16:39:05.676Z,-145.47
2023-03-06T16:44:09.999Z,-145.47
2023-03-06T16:49:16.317Z,-145.47
2023-03-06T16:54:18.669Z,-145.47
2023-03-06T16:59:20.710Z,-145.47
2023-03-06T17:04:23.990Z,-145.47
2023-03-06T17:09:26.021Z,-145.47
2023-03-06T17:14:28.111Z,-145.47
2023-03-06T17:19:31.484Z,-145.47
2023-03-06T17:24:35.322Z,-145.47
2023-03-06T17:29:37.599Z,-145.47
2023-03-06T17:34:41.262Z,-145.47
2023-03-06T17:39:43.235Z,-145.47
2023-03-06T17:44:45.286Z,-145.47
2023-03-06T17:49:48.596Z,-145.47
2023-03-06T17:54:50.625Z,-145.47
2023-03-06T17:59:53.016Z,-145.47
2023-03-06T18:04:58.125Z,-145.47
2023-03-06T18:10:00.208Z,-145.47
2023-03-06T18:15:02.285Z,-145.47
2023-03-06T18:20:06.753Z,-145.47
2023-03-06T18:25:09.904Z,-145.47
2023-03-06T18:30:12.595Z,-145.47
2023-03-06T18:35:16.092Z,-145.47
2023-03-06T18:40:18.501Z,-145.47
2023-03-06T18:45:21.248Z,-145.47
2023-03-06T18:50:24.621Z,-145.47
2023-03-06T18:55:26.948Z,-145.47
2023-03-06T19:00:29.001Z,-145.47
2023-03-06T19:05:32.575Z,-145.47
2023-03-06T19:10:35.915Z,-145.47
2023-03-06T19:15:43.349Z,-145.47
2023-03-06T19:20:46.709Z,-145.47
2023-03-06T19:25:55.792Z,-145.47
2023-03-06T19:30:57.751Z,-145.47
2023-03-06T19:36:02.915Z,-145.47
2023-03-06T19:41:05.246Z,-145.47
2023-03-06T19:46:11.140Z,-145.47
2023-03-06T19:51:14.561Z,-145.47
2023-03-06T19:56:21.402Z,-145.47
2023-03-06T20:01:26.203Z,-145.47
2023-03-06T20:06:33.584Z,-145.47
2023-03-06T20:11:36.138Z,-145.47
2023-03-06T20:16:38.886Z,-145.47
2023-03-06T20:21:42.349Z,-145.47
2023-03-06T20:26:45.644Z,-145.47
2023-03-06T20:31:47.612Z,-145.47
2023-03-06T20:36:51.073Z,-145.47
2023-03-06T20:41:53.092Z,-145.47
2023-03-06T20:46:55.268Z,-145.47
2023-03-06T20:51:58.932Z,-145.47
2023-03-06T20:57:00.894Z,-145.47
2023-03-06T21:02:03.720Z,-145.47
2023-03-06T21:07:07.065Z,-145.47
2023-03-06T21:12:09.104Z,-145.47
2023-03-06T21:17:13.823Z,-145.47
2023-03-06T21:22:17.383Z,-145.47
2023-03-06T21:27:19.580Z,-145.47
2023-03-06T21:32:21.718Z,-145.47
2023-03-06T21:37:25.408Z,-145.47
2023-03-06T21:42:27.443Z,-145.47
2023-03-06T21:47:31.160Z,-145.47
2023-03-06T21:52:34.515Z,-145.47
2023-03-06T21:57:36.585Z,-145.47
2023-03-06T22:02:39.057Z,-145.47
2023-03-06T22:07:42.756Z,-145.47
2023-03-06T22:12:46.544Z,-145.47
2023-03-06T22:17:48.617Z,-145.47
2023-03-06T22:22:52.074Z,-145.47
2023-03-06T22:27:54.020Z,-145.47
2023-03-06T22:32:56.019Z,-145.47
2023-03-06T22:38:02.543Z,-145.47
2023-03-06T22:43:04.473Z,-145.47
2023-03-06T22:48:11.169Z,-145.47
2023-03-06T22:53:14.728Z,-145.47
2023-03-06T22:58:16.689Z,-145.47
2023-03-06T23:03:18.645Z,-145.47
2023-03-06T23:08:21.957Z,-145.47
2023-03-06T23:13:24.000Z,-145.47
2023-03-06T23:18:28.186Z,-145.47
2023-03-06T23:23:31.469Z,-145.47
2023-03-06T23:28:34.998Z,-145.47
2023-03-06T23:33:38.756Z,-145.47
2023-03-06T23:38:42.153Z,-145.47
2023-03-06T23:43:45.028Z,-145.47
2023-03-06T23:48:47.038Z,-145.47
2023-03-06T23:53:55.711Z,-145.47
2023-03-06T23:58:57.718Z,-145.47
